Time;durP1;ratioP1;P1;durP2;ratioP2;P2;SDS_P1;SDS_P2;PMS_P1;PMS_P2;Temp;Humidity;BMP_temperature;BMP_pressure;BME280_temperature;BME280_humidity;BME280_pressure;Samples;Min_cycle;Max_cycle;Signal;HPM_P1;HPM_P2
2022/11/07 00:02:13;;;;;;;;;3.33;3.00;;;;;-147.17;100.00;-15917.19;4970693;28;50927;-45
2022/11/07 00:04:39;;;;;;;;;5.67;3.00;;;;;-147.17;100.00;-15917.19;4968931;28;51260;-44
2022/11/07 00:07:05;;;;;;;;;3.00;2.67;;;;;-147.17;100.00;-15917.19;4963045;28;51092;-45
2022/11/07 00:09:31;;;;;;;;;4.00;4.00;;;;;-147.17;100.00;-15917.19;4959782;28;51036;-44
2022/11/07 00:11:56;;;;;;;;;5.00;4.33;;;;;-147.17;100.00;-15917.19;4970277;28;51108;-45
2022/11/07 00:14:22;;;;;;;;;3.33;2.33;;;;;-147.17;100.00;-15917.19;4971015;28;51891;-45
2022/11/07 00:16:47;;;;;;;;;3.00;2.00;;;;;-147.17;100.00;-15917.19;4969848;28;52238;-44
2022/11/07 00:19:16;;;;;;;;;3.67;2.00;;;;;-147.17;100.00;-15917.19;4961009;28;52234;-45
2022/11/07 00:21:42;;;;;;;;;3.00;3.00;;;;;-147.17;100.00;-15917.19;4969396;28;51213;-45
2022/11/07 00:24:09;;;;;;;;;5.33;4.33;;;;;-147.17;100.00;-15917.19;4971491;28;51391;-43
2022/11/07 00:26:35;;;;;;;;;3.33;3.33;;;;;-147.17;100.00;-15917.19;4969631;28;52224;-45
2022/11/07 00:29:01;;;;;;;;;3.67;2.33;;;;;-147.17;100.00;-15917.19;4966197;28;51214;-44
2022/11/07 00:31:26;;;;;;;;;1.00;1.00;;;;;-147.17;100.00;-15917.19;4973127;28;51280;-44
2022/11/07 00:33:52;;;;;;;;;2.00;2.00;;;;;-147.17;100.00;-15917.19;4975511;28;51160;-45
2022/11/07 00:36:21;;;;;;;;;12.67;12.00;;;;;-147.17;100.00;-15917.19;4973821;28;51341;-45
2022/11/07 00:38:46;;;;;;;;;8.00;7.33;;;;;-147.17;100.00;-15917.19;4975230;28;51245;-45
2022/11/07 00:41:11;;;;;;;;;6.67;6.00;;;;;-147.17;100.00;-15917.19;4970676;28;51247;-46
2022/11/07 00:43:37;;;;;;;;;6.00;5.00;;;;;-147.17;100.00;-15917.19;4971096;28;51173;-45
2022/11/07 00:46:03;;;;;;;;;3.67;3.67;;;;;-147.17;100.00;-15917.19;4970620;28;52560;-45
2022/11/07 00:48:30;;;;;;;;;3.00;3.00;;;;;-147.17;100.00;-15917.19;4972872;28;51056;-45
2022/11/07 00:50:55;;;;;;;;;4.00;4.00;;;;;-147.17;100.00;-15917.19;4965669;28;51188;-47
2022/11/07 00:53:21;;;;;;;;;4.00;3.00;;;;;-147.17;100.00;-15917.19;4988743;28;51065;-45
2022/11/07 00:55:46;;;;;;;;;4.67;3.33;;;;;-147.17;100.00;-15917.19;4991638;28;51130;-47
2022/11/07 00:58:12;;;;;;;;;3.00;2.33;;;;;-147.17;100.00;-15917.19;4993309;28;51228;-45
2022/11/07 01:00:37;;;;;;;;;3.00;2.00;;;;;-147.17;100.00;-15917.19;4991622;28;51235;-45
2022/11/07 01:05:57;;;;;;;;;10.00;8.67;;;;;-147.17;100.00;-15917.19;4993268;28;51525;-45
2022/11/07 01:08:23;;;;;;;;;3.33;2.00;;;;;-147.17;100.00;-15917.19;4987116;28;51104;-45
2022/11/07 01:10:49;;;;;;;;;6.00;5.00;;;;;-147.17;100.00;-15917.19;4985158;28;51028;-45
2022/11/07 01:13:14;;;;;;;;;3.00;3.00;;;;;-147.17;100.00;-15917.19;4987682;28;51271;-44
2022/11/07 01:15:40;;;;;;;;;2.33;2.33;;;;;-147.17;100.00;-15917.19;4993305;28;52102;-45
2022/11/07 01:18:06;;;;;;;;;2.67;2.67;;;;;-147.17;100.00;-15917.19;4991383;28;50948;-45
2022/11/07 01:20:31;;;;;;;;;4.33;3.00;;;;;-147.17;100.00;-15917.19;4991996;28;51085;-44
2022/11/07 01:22:56;;;;;;;;;5.00;5.00;;;;;-147.17;100.00;-15917.19;4984677;28;51435;-45
2022/11/07 01:25:21;;;;;;;;;21.67;15.00;;;;;-147.17;100.00;-15917.19;4991338;28;52731;-45
2022/11/07 01:27:47;;;;;;;;;1.00;1.00;;;;;-147.17;100.00;-15917.19;4991801;28;51052;-45
2022/11/07 01:30:12;;;;;;;;;3.33;3.33;;;;;-147.17;100.00;-15917.19;4992425;28;51924;-45
2022/11/07 01:32:37;;;;;;;;;4.67;3.67;;;;;-147.17;100.00;-15917.19;4994482;28;51399;-45
2022/11/07 01:35:03;;;;;;;;;5.00;3.00;;;;;-147.17;100.00;-15917.19;4994623;28;51822;-45
2022/11/07 01:37:28;;;;;;;;;4.00;2.67;;;;;-147.17;100.00;-15917.19;4961973;28;51269;-45
2022/11/07 01:39:54;;;;;;;;;1.67;1.33;;;;;-147.17;100.00;-15917.19;4991691;28;51165;-46
2022/11/07 01:42:20;;;;;;;;;3.67;3.00;;;;;-147.17;100.00;-15917.19;4990697;28;51331;-44
2022/11/07 01:44:56;;;;;;;;;7.00;6.00;;;;;-147.17;100.00;-15917.19;4991366;28;51728;-46
2022/11/07 01:47:24;;;;;;;;;3.00;2.00;;;;;-147.17;100.00;-15917.19;4992740;28;51303;-44
2022/11/07 01:49:52;;;;;;;;;3.00;3.00;;;;;-147.17;100.00;-15917.19;4991638;28;51516;-45
2022/11/07 01:52:29;;;;;;;;;5.00;3.00;;;;;-147.17;100.00;-15917.19;4968623;28;51255;-45
2022/11/07 01:55:05;;;;;;;;;3.00;2.00;;;;;-147.17;100.00;-15917.19;4963432;28;52173;-44
2022/11/07 01:57:38;;;;;;;;;2.00;1.00;;;;;-147.17;100.00;-15917.19;4950822;28;51870;-46
2022/11/07 02:00:10;;;;;;;;;3.33;3.00;;;;;-147.17;100.00;-15917.19;4945546;28;51100;-45
2022/11/07 02:02:36;;;;;;;;;6.67;6.00;;;;;-147.17;100.00;-15917.19;4946036;28;50988;-45
2022/11/07 02:05:04;;;;;;;;;9.00;7.67;;;;;-147.17;100.00;-15917.19;4952817;28;51420;-45
2022/11/07 02:07:30;;;;;;;;;2.67;2.00;;;;;-147.17;100.00;-15917.19;4952807;28;51231;-46
2022/11/07 02:09:56;;;;;;;;;2.00;2.00;;;;;-147.17;100.00;-15917.19;4947692;28;50987;-47
2022/11/07 02:12:24;;;;;;;;;3.33;2.67;;;;;-147.17;100.00;-15917.19;4947347;28;51141;-45
2022/11/07 02:14:49;;;;;;;;;5.67;3.33;;;;;-147.17;100.00;-15917.19;4950700;28;51124;-46
2022/11/07 02:17:15;;;;;;;;;4.00;3.00;;;;;-147.17;100.00;-15917.19;4965379;28;51169;-46
2022/11/07 02:19:55;;;;;;;;;3.33;1.33;;;;;-147.17;100.00;-15917.19;4951573;28;51201;-45
2022/11/07 02:22:42;;;;;;;;;7.00;3.00;;;;;-147.17;100.00;-15917.19;4945719;28;51136;-44
2022/11/07 02:25:11;;;;;;;;;2.00;1.00;;;;;-147.17;100.00;-15917.19;4950937;28;51704;-44
2022/11/07 02:27:38;;;;;;;;;2.67;2.00;;;;;-147.17;100.00;-15917.19;4953498;28;50903;-44
2022/11/07 02:30:17;;;;;;;;;3.00;2.00;;;;;-147.17;100.00;-15917.19;4945922;28;51354;-45
2022/11/07 02:32:43;;;;;;;;;3.67;3.00;;;;;-147.17;100.00;-15917.19;4950122;28;51391;-45
2022/11/07 02:35:38;;;;;;;;;3.33;2.00;;;;;-147.17;100.00;-15917.19;4951830;28;52086;-44
2022/11/07 02:38:11;;;;;;;;;1.67;1.33;;;;;-147.17;100.00;-15917.19;4949115;28;51042;-45
2022/11/07 02:40:37;;;;;;;;;4.00;3.67;;;;;-147.17;100.00;-15917.19;4951142;28;51158;-46
2022/11/07 02:43:05;;;;;;;;;2.33;2.33;;;;;-147.17;100.00;-15917.19;4953015;28;51308;-44
2022/11/07 02:45:34;;;;;;;;;2.67;2.00;;;;;-147.17;100.00;-15917.19;4950925;28;51861;-45
2022/11/07 02:48:00;;;;;;;;;4.00;2.00;;;;;-147.17;100.00;-15917.19;4949405;28;51517;-46
2022/11/07 02:50:25;;;;;;;;;1.67;1.67;;;;;-147.17;100.00;-15917.19;4952612;28;51197;-45
2022/11/07 02:52:51;;;;;;;;;4.67;3.00;;;;;-147.17;100.00;-15917.19;4959268;28;51081;-45
2022/11/07 02:55:17;;;;;;;;;2.00;2.00;;;;;-147.17;100.00;-15917.19;4964488;28;51169;-46
2022/11/07 02:57:42;;;;;;;;;9.00;8.33;;;;;-147.17;100.00;-15917.19;4967906;28;51300;-44
2022/11/07 03:00:11;;;;;;;;;2.33;2.33;;;;;-147.17;100.00;-15917.19;4972304;28;51767;-45
2022/11/07 03:02:36;;;;;;;;;3.00;2.33;;;;;-147.17;100.00;-15917.19;4969930;28;51251;-45
2022/11/07 03:05:02;;;;;;;;;3.33;3.00;;;;;-147.17;100.00;-15917.19;4972089;28;51834;-44
2022/11/07 03:07:27;;;;;;;;;2.00;2.00;;;;;-147.17;100.00;-15917.19;4967858;28;51133;-45
2022/11/07 03:09:53;;;;;;;;;14.33;12.00;;;;;-147.17;100.00;-15917.19;4971131;28;50954;-45
2022/11/07 03:12:18;;;;;;;;;6.33;5.33;;;;;-147.17;100.00;-15917.19;4972433;28;51050;-45
2022/11/07 03:14:43;;;;;;;;;2.33;2.33;;;;;-147.17;100.00;-15917.19;4970944;28;51208;-44
2022/11/07 03:17:09;;;;;;;;;6.00;4.33;;;;;-147.17;100.00;-15917.19;4970791;28;51175;-46
2022/11/07 03:19:34;;;;;;;;;5.00;4.00;;;;;-147.17;100.00;-15917.19;4970312;28;51369;-45
2022/11/07 03:21:59;;;;;;;;;4.67;2.00;;;;;-147.17;100.00;-15917.19;4971862;28;51296;-45
2022/11/07 03:24:25;;;;;;;;;4.67;2.67;;;;;-147.17;100.00;-15917.19;4969672;28;52170;-44
2022/11/07 03:26:50;;;;;;;;;2.33;2.33;;;;;-147.17;100.00;-15917.19;4970653;28;51212;-46
2022/11/07 03:29:15;;;;;;;;;3.00;2.00;;;;;-147.17;100.00;-15917.19;4964720;28;51258;-46
2022/11/07 03:31:41;;;;;;;;;3.00;2.00;;;;;-147.17;100.00;-15917.19;4967736;28;51376;-45
2022/11/07 03:34:06;;;;;;;;;5.67;4.00;;;;;-147.17;100.00;-15917.19;4969377;28;53228;-44
2022/11/07 03:36:32;;;;;;;;;2.00;2.00;;;;;-147.17;100.00;-15917.19;4967969;28;51081;-45
2022/11/07 03:38:58;;;;;;;;;4.00;4.00;;;;;-147.17;100.00;-15917.19;4984549;28;51284;-45
2022/11/07 03:41:23;;;;;;;;;6.00;5.67;;;;;-147.17;100.00;-15917.19;4969753;28;51407;-45
2022/11/07 03:43:48;;;;;;;;;3.67;2.33;;;;;-147.17;100.00;-15917.19;4965085;28;51716;-44
2022/11/07 03:46:15;;;;;;;;;4.33;4.00;;;;;-147.17;100.00;-15917.19;4969481;28;51053;-45
2022/11/07 03:48:40;;;;;;;;;3.00;2.00;;;;;-147.17;100.00;-15917.19;4966053;28;51358;-45
2022/11/07 03:51:07;;;;;;;;;1.33;1.33;;;;;-147.17;100.00;-15917.19;4970657;28;50985;-46
2022/11/07 03:53:33;;;;;;;;;4.00;3.00;;;;;-147.17;100.00;-15917.19;4984753;28;51894;-45
2022/11/07 03:55:59;;;;;;;;;5.33;4.00;;;;;-147.17;100.00;-15917.19;4982953;28;51118;-45
2022/11/07 03:58:25;;;;;;;;;2.00;2.00;;;;;-147.17;100.00;-15917.19;4987774;28;50974;-45
2022/11/07 04:00:51;;;;;;;;;5.67;4.67;;;;;-147.17;100.00;-15917.19;4967886;28;51414;-46
2022/11/07 04:03:16;;;;;;;;;3.00;1.00;;;;;-147.17;100.00;-15917.19;4982253;28;52868;-45
2022/11/07 04:05:42;;;;;;;;;3.67;3.00;;;;;-147.17;100.00;-15917.19;4975551;28;51255;-45
2022/11/07 04:08:07;;;;;;;;;2.00;2.00;;;;;-147.17;100.00;-15917.19;4990015;28;51340;-45
2022/11/07 04:10:32;;;;;;;;;1.67;1.67;;;;;-147.17;100.00;-15917.19;4993628;28;51318;-45
2022/11/07 04:18:28;;;;;;;;;5.00;5.00;;;;;-147.17;100.00;-15917.19;4995906;28;51136;-45
2022/11/07 04:20:53;;;;;;;;;4.00;3.00;;;;;-147.17;100.00;-15917.19;4994759;28;51078;-45
2022/11/07 04:23:18;;;;;;;;;3.00;2.00;;;;;-147.17;100.00;-15917.19;4987425;28;61358;-46
2022/11/07 04:28:27;;;;;;;;;7.67;6.33;;;;;-147.17;100.00;-15917.19;4994297;28;51003;-45
2022/11/07 04:30:53;;;;;;;;;9.00;5.00;;;;;-147.17;100.00;-15917.19;4993345;28;51712;-46
2022/11/07 04:33:18;;;;;;;;;4.33;4.33;;;;;-147.17;100.00;-15917.19;4994008;28;51856;-45
2022/11/07 04:35:43;;;;;;;;;5.00;4.00;;;;;-147.17;100.00;-15917.19;4975626;28;51256;-45
2022/11/07 04:38:09;;;;;;;;;4.00;3.67;;;;;-147.17;100.00;-15917.19;4994343;28;51089;-45
2022/11/07 04:40:34;;;;;;;;;6.00;5.00;;;;;-147.17;100.00;-15917.19;4993716;28;51215;-45
2022/11/07 04:43:00;;;;;;;;;8.00;7.33;;;;;-147.17;100.00;-15917.19;4990569;28;51727;-46
2022/11/07 04:45:25;;;;;;;;;5.67;3.67;;;;;-147.17;100.00;-15917.19;4972183;28;51145;-46
2022/11/07 04:47:51;;;;;;;;;4.00;3.00;;;;;-147.17;100.00;-15917.19;4988955;28;50919;-45
2022/11/07 04:50:18;;;;;;;;;8.67;7.33;;;;;-147.17;100.00;-15917.19;4976042;28;51217;-46
2022/11/07 04:52:45;;;;;;;;;4.00;3.33;;;;;-147.17;100.00;-15917.19;4991148;28;52834;-46
2022/11/07 04:55:18;;;;;;;;;4.00;3.67;;;;;-147.17;100.00;-15917.19;4969217;28;51106;-45
2022/11/07 04:57:44;;;;;;;;;5.33;4.67;;;;;-147.17;100.00;-15917.19;4987668;28;50988;-46
2022/11/07 05:00:10;;;;;;;;;6.00;6.00;;;;;-147.17;100.00;-15917.19;4994362;28;51077;-46
2022/11/07 05:02:35;;;;;;;;;11.50;11.25;;;;;-147.17;100.00;-15917.19;4993634;28;51546;-44
2022/11/07 05:05:00;;;;;;;;;3.00;2.00;;;;;-147.17;100.00;-15917.19;4991336;28;51862;-45
2022/11/07 05:07:26;;;;;;;;;4.00;3.67;;;;;-147.17;100.00;-15917.19;4993239;28;51144;-46
2022/11/07 05:09:51;;;;;;;;;3.00;2.67;;;;;-147.17;100.00;-15917.19;4977050;28;51220;-46
2022/11/07 05:12:16;;;;;;;;;4.00;3.67;;;;;-147.17;100.00;-15917.19;4966533;28;54106;-45
2022/11/07 05:14:42;;;;;;;;;3.00;2.00;;;;;-147.17;100.00;-15917.19;4992265;28;51208;-46
2022/11/07 05:17:12;;;;;;;;;1.00;1.00;;;;;-147.17;100.00;-15917.19;4992612;28;51253;-45
2022/11/07 05:19:37;;;;;;;;;2.00;2.00;;;;;-147.17;100.00;-15917.19;4988916;28;50931;-46
2022/11/07 05:24:46;;;;;;;;;10.00;9.00;;;;;-147.17;100.00;-15917.19;4986263;28;51021;-45
2022/11/07 05:27:17;;;;;;;;;2.00;0.67;;;;;-147.17;100.00;-15917.19;4984724;28;51224;-44
2022/11/07 05:29:42;;;;;;;;;3.67;3.00;;;;;-147.17;100.00;-15917.19;4993181;28;51144;-45
2022/11/07 05:32:07;;;;;;;;;4.33;2.67;;;;;-147.17;100.00;-15917.19;4986141;28;50969;-46
2022/11/07 05:34:33;;;;;;;;;2.00;1.00;;;;;-147.17;100.00;-15917.19;4971705;28;51279;-45
2022/11/07 05:36:58;;;;;;;;;11.33;11.33;;;;;-147.17;100.00;-15917.19;4989542;28;51421;-45
2022/11/07 05:39:23;;;;;;;;;2.67;2.67;;;;;-147.17;100.00;-15917.19;4992592;28;51183;-46
2022/11/07 05:41:48;;;;;;;;;2.33;2.00;;;;;-147.17;100.00;-15917.19;4975072;28;51120;-45
2022/11/07 05:44:14;;;;;;;;;3.67;3.00;;;;;-147.17;100.00;-15917.19;4993100;28;51080;-46
2022/11/07 05:46:39;;;;;;;;;2.00;2.00;;;;;-147.17;100.00;-15917.19;4993346;28;51982;-45
2022/11/07 05:49:04;;;;;;;;;4.67;3.67;;;;;-147.17;100.00;-15917.19;4992309;28;51215;-46
2022/11/07 05:51:30;;;;;;;;;3.67;2.00;;;;;-147.17;100.00;-15917.19;4992096;28;51839;-45
2022/11/07 05:53:55;;;;;;;;;2.33;2.33;;;;;-147.17;100.00;-15917.19;4991112;28;51049;-45
2022/11/07 05:56:20;;;;;;;;;3.00;2.00;;;;;-147.17;100.00;-15917.19;4990276;28;51220;-46
2022/11/07 05:58:46;;;;;;;;;2.33;2.33;;;;;-147.17;100.00;-15917.19;4993035;28;50970;-46
2022/11/07 06:01:11;;;;;;;;;9.67;7.67;;;;;-147.17;100.00;-15917.19;4992133;28;51726;-45
2022/11/07 06:03:36;;;;;;;;;8.67;8.67;;;;;-147.17;100.00;-15917.19;4987958;28;51227;-45
2022/11/07 06:06:02;;;;;;;;;3.00;2.00;;;;;-147.17;100.00;-15917.19;4990391;28;51878;-45
2022/11/07 06:08:27;;;;;;;;;5.33;5.33;;;;;-147.17;100.00;-15917.19;4992695;28;53001;-46
2022/11/07 06:10:52;;;;;;;;;5.00;4.33;;;;;-147.17;100.00;-15917.19;4992662;28;51889;-45
2022/11/07 06:13:17;;;;;;;;;2.67;2.00;;;;;-147.17;100.00;-15917.19;4991610;28;50999;-47
2022/11/07 06:15:44;;;;;;;;;8.67;8.67;;;;;-147.17;100.00;-15917.19;4991315;28;52677;-46
2022/11/07 06:18:18;;;;;;;;;24.33;19.33;;;;;-147.17;100.00;-15917.19;4992884;28;51100;-45
2022/11/07 06:20:44;;;;;;;;;5.33;5.33;;;;;-147.17;100.00;-15917.19;4974207;28;52835;-45
2022/11/07 06:23:10;;;;;;;;;5.67;5.67;;;;;-147.17;100.00;-15917.19;4979844;28;51176;-45
2022/11/07 06:25:36;;;;;;;;;10.33;8.67;;;;;-147.17;100.00;-15917.19;4963900;28;51269;-45
2022/11/07 06:28:04;;;;;;;;;34.75;30.50;;;;;-147.17;100.00;-15917.19;4985792;28;51356;-45
2022/11/07 06:30:30;;;;;;;;;4.00;2.00;;;;;-147.17;100.00;-15917.19;4984169;28;51316;-45
2022/11/07 06:33:00;;;;;;;;;2.33;2.00;;;;;-147.17;100.00;-15917.19;4990188;28;50929;-46
2022/11/07 06:35:26;;;;;;;;;7.33;4.00;;;;;-147.17;100.00;-15917.19;4993271;28;51297;-46
2022/11/07 06:37:51;;;;;;;;;5.00;3.67;;;;;-147.17;100.00;-15917.19;4988952;28;51044;-45
2022/11/07 06:40:16;;;;;;;;;3.67;2.67;;;;;-147.17;100.00;-15917.19;4991285;28;55521;-46
2022/11/07 06:42:42;;;;;;;;;2.33;1.33;;;;;-147.17;100.00;-15917.19;4972343;28;51169;-46
2022/11/07 06:45:07;;;;;;;;;2.00;2.00;;;;;-147.17;100.00;-15917.19;4987128;28;51594;-45
2022/11/07 06:47:33;;;;;;;;;3.67;3.00;;;;;-147.17;100.00;-15917.19;4992565;28;51119;-46
2022/11/07 06:49:58;;;;;;;;;3.00;2.00;;;;;-147.17;100.00;-15917.19;4990901;28;52579;-46
2022/11/07 06:52:24;;;;;;;;;2.67;2.00;;;;;-147.17;100.00;-15917.19;4990805;28;51650;-46
2022/11/07 06:54:49;;;;;;;;;2.67;2.67;;;;;-147.17;100.00;-15917.19;4982136;28;51280;-46
2022/11/07 06:57:14;;;;;;;;;2.67;2.00;;;;;-147.17;100.00;-15917.19;4991364;28;51220;-44
2022/11/07 06:59:40;;;;;;;;;2.33;2.00;;;;;-147.17;100.00;-15917.19;4990697;28;55807;-46
2022/11/07 07:02:05;;;;;;;;;3.00;3.00;;;;;-147.17;100.00;-15917.19;4992746;28;51074;-46
2022/11/07 07:04:30;;;;;;;;;1.33;1.00;;;;;-147.17;100.00;-15917.19;4992867;28;50939;-45
2022/11/07 07:06:56;;;;;;;;;4.00;3.67;;;;;-147.17;100.00;-15917.19;4991947;28;51034;-45
2022/11/07 07:09:21;;;;;;;;;5.67;4.00;;;;;-147.17;100.00;-15917.19;4991023;28;52122;-46
2022/11/07 07:11:47;;;;;;;;;3.00;3.00;;;;;-147.17;100.00;-15917.19;4990568;28;51104;-45
2022/11/07 07:14:12;;;;;;;;;2.33;2.33;;;;;-147.17;100.00;-15917.19;4986331;28;51064;-46
2022/11/07 07:16:38;;;;;;;;;4.67;4.00;;;;;-147.17;100.00;-15917.19;4989836;28;50851;-45
2022/11/07 07:19:04;;;;;;;;;3.67;3.00;;;;;-147.17;100.00;-15917.19;4990911;28;51080;-45
2022/11/07 07:21:29;;;;;;;;;3.67;3.00;;;;;-147.17;100.00;-15917.19;4991538;28;51034;-45
2022/11/07 07:23:54;;;;;;;;;2.00;2.00;;;;;-147.17;100.00;-15917.19;4988224;28;51137;-45
2022/11/07 07:26:20;;;;;;;;;3.33;2.33;;;;;-147.17;100.00;-15917.19;4986912;28;51435;-46
2022/11/07 07:28:45;;;;;;;;;4.67;3.00;;;;;-147.17;100.00;-15917.19;4978669;28;51103;-46
2022/11/07 07:31:13;;;;;;;;;2.33;2.33;;;;;-147.17;100.00;-15917.19;4973691;28;51140;-45
2022/11/07 07:33:45;;;;;;;;;6.00;3.67;;;;;-147.17;100.00;-15917.19;4991033;28;50915;-46
2022/11/07 07:36:11;;;;;;;;;8.00;8.00;;;;;-147.17;100.00;-15917.19;4985989;28;51248;-44
2022/11/07 07:38:37;;;;;;;;;6.67;5.67;;;;;-147.17;100.00;-15917.19;4997920;28;51834;-46
2022/11/07 07:41:04;;;;;;;;;4.33;3.33;;;;;-147.17;100.00;-15917.19;4991611;28;51054;-45
2022/11/07 07:43:30;;;;;;;;;6.00;5.00;;;;;-147.17;100.00;-15917.19;4988876;28;51131;-46
2022/11/07 07:46:00;;;;;;;;;5.67;5.67;;;;;-147.17;100.00;-15917.19;4979331;28;51143;-47
2022/11/07 07:48:26;;;;;;;;;3.00;3.00;;;;;-147.17;100.00;-15917.19;4991523;28;51273;-46
2022/11/07 07:50:51;;;;;;;;;4.67;4.67;;;;;-147.17;100.00;-15917.19;4987692;28;52707;-45
2022/11/07 07:53:17;;;;;;;;;5.00;4.00;;;;;-147.17;100.00;-15917.19;4991701;28;51170;-45
2022/11/07 07:55:43;;;;;;;;;6.00;4.33;;;;;-147.17;100.00;-15917.19;4989132;28;51264;-46
2022/11/07 07:58:10;;;;;;;;;5.33;4.00;;;;;-147.17;100.00;-15917.19;4987668;28;51145;-45
2022/11/07 08:00:35;;;;;;;;;2.00;2.00;;;;;-147.17;100.00;-15917.19;4985651;28;51052;-46
2022/11/07 08:03:02;;;;;;;;;6.67;6.67;;;;;-147.17;100.00;-15917.19;4988983;28;51122;-45
2022/11/07 08:05:28;;;;;;;;;4.00;3.00;;;;;-147.17;100.00;-15917.19;4991250;28;51021;-45
2022/11/07 08:07:53;;;;;;;;;4.00;4.00;;;;;-147.17;100.00;-15917.19;4986671;28;51817;-47
2022/11/07 08:10:19;;;;;;;;;3.33;3.33;;;;;-147.17;100.00;-15917.19;4990467;28;51064;-46
2022/11/07 08:12:46;;;;;;;;;9.00;6.67;;;;;-147.17;100.00;-15917.19;4990417;28;51150;-46
2022/11/07 08:15:13;;;;;;;;;8.33;7.67;;;;;-147.17;100.00;-15917.19;4989173;28;51104;-46
2022/11/07 08:17:39;;;;;;;;;4.33;4.33;;;;;-147.17;100.00;-15917.19;4985715;28;53035;-46
2022/11/07 08:20:07;;;;;;;;;3.67;3.67;;;;;-147.17;100.00;-15917.19;4990591;28;51005;-46
2022/11/07 08:22:32;;;;;;;;;6.67;4.00;;;;;-147.17;100.00;-15917.19;4991456;28;51104;-47
2022/11/07 08:24:57;;;;;;;;;3.67;2.67;;;;;-147.17;100.00;-15917.19;4988061;28;51090;-46
2022/11/07 08:27:22;;;;;;;;;4.00;3.00;;;;;-147.17;100.00;-15917.19;4973676;28;54166;-46
2022/11/07 08:29:48;;;;;;;;;3.33;3.33;;;;;-147.17;100.00;-15917.19;4990915;28;51161;-46
2022/11/07 08:32:14;;;;;;;;;9.00;4.67;;;;;-147.17;100.00;-15917.19;4972015;28;50869;-46
2022/11/07 08:34:39;;;;;;;;;3.33;2.67;;;;;-147.17;100.00;-15917.19;4986575;28;51379;-44
2022/11/07 08:37:05;;;;;;;;;4.33;2.00;;;;;-147.17;100.00;-15917.19;4986744;28;51823;-45
2022/11/07 08:39:30;;;;;;;;;4.33;1.67;;;;;-147.17;100.00;-15917.19;4984266;28;51116;-45
2022/11/07 08:41:55;;;;;;;;;1.67;0.67;;;;;-147.17;100.00;-15917.19;4987418;28;51025;-46
2022/11/07 08:44:21;;;;;;;;;5.33;3.33;;;;;-147.17;100.00;-15917.19;4988473;28;51361;-45
2022/11/07 08:46:46;;;;;;;;;2.00;2.00;;;;;-147.17;100.00;-15917.19;4990212;28;51141;-45
2022/11/07 08:49:12;;;;;;;;;5.00;3.00;;;;;-147.17;100.00;-15917.19;4970794;28;51092;-45
2022/11/07 08:51:38;;;;;;;;;3.67;2.33;;;;;-147.17;100.00;-15917.19;4991405;28;51290;-44
2022/11/07 08:54:03;;;;;;;;;4.33;3.33;;;;;-147.17;100.00;-15917.19;4987257;28;51165;-45
2022/11/07 08:56:29;;;;;;;;;5.00;2.67;;;;;-147.17;100.00;-15917.19;4975158;28;51258;-45
2022/11/07 08:58:56;;;;;;;;;2.00;1.00;;;;;-147.17;100.00;-15917.19;4984048;28;51064;-45
2022/11/07 09:01:21;;;;;;;;;4.00;3.33;;;;;-147.17;100.00;-15917.19;4991453;28;51054;-44
2022/11/07 09:03:46;;;;;;;;;3.33;2.00;;;;;-147.17;100.00;-15917.19;4991219;28;51141;-46
2022/11/07 09:06:12;;;;;;;;;5.00;3.00;;;;;-147.17;100.00;-15917.19;4991894;28;51110;-47
2022/11/07 09:08:37;;;;;;;;;4.33;3.00;;;;;-147.17;100.00;-15917.19;4993150;28;50881;-46
2022/11/07 09:11:04;;;;;;;;;2.00;2.00;;;;;-147.17;100.00;-15917.19;4992049;28;51152;-45
2022/11/07 09:13:30;;;;;;;;;3.00;2.00;;;;;-147.17;100.00;-15917.19;4991700;28;51221;-45
2022/11/07 09:16:01;;;;;;;;;3.33;2.00;;;;;-147.17;100.00;-15917.19;4991361;28;51281;-44
2022/11/07 09:18:26;;;;;;;;;5.00;3.00;;;;;-147.17;100.00;-15917.19;4991698;28;51007;-46
2022/11/07 09:20:52;;;;;;;;;4.00;3.00;;;;;-147.17;100.00;-15917.19;4992154;28;51480;-45
2022/11/07 09:23:18;;;;;;;;;4.00;3.00;;;;;-147.17;100.00;-15917.19;4975454;28;51304;-44
2022/11/07 09:25:43;;;;;;;;;4.00;3.00;;;;;-147.17;100.00;-15917.19;4992000;28;52056;-45
2022/11/07 09:28:09;;;;;;;;;2.67;2.00;;;;;-147.17;100.00;-15917.19;4990464;28;51286;-43
2022/11/07 09:30:34;;;;;;;;;2.67;1.67;;;;;-147.17;100.00;-15917.19;4993394;28;51545;-46
2022/11/07 09:33:00;;;;;;;;;6.33;6.00;;;;;-147.17;100.00;-15917.19;4986547;28;51120;-46
2022/11/07 09:35:26;;;;;;;;;2.33;2.00;;;;;-147.17;100.00;-15917.19;4991004;28;51924;-45
2022/11/07 09:37:51;;;;;;;;;5.00;4.00;;;;;-147.17;100.00;-15917.19;4990964;28;51439;-44
2022/11/07 09:41:01;;;;;;;;;2.67;2.00;;;;;-147.17;100.00;-15917.19;4990787;28;51035;-45
2022/11/07 09:44:06;;;;;;;;;5.00;4.00;;;;;-147.17;100.00;-15917.19;4932794;28;51124;-44
2022/11/07 09:46:53;;;;;;;;;3.67;3.00;;;;;-147.17;100.00;-15917.19;4988787;28;51032;-45
2022/11/07 09:49:33;;;;;;;;;3.33;2.00;;;;;-147.17;100.00;-15917.19;4987118;28;50902;-45
2022/11/07 09:52:30;;;;;;;;;4.33;3.00;;;;;-147.17;100.00;-15917.19;4993265;28;51138;-45
2022/11/07 09:55:17;;;;;;;;;3.33;3.00;;;;;-147.17;100.00;-15917.19;4979483;28;51225;-46
2022/11/07 09:57:44;;;;;;;;;4.00;3.00;;;;;-147.17;100.00;-15917.19;4991472;28;51752;-45
2022/11/07 10:00:18;;;;;;;;;2.67;2.67;;;;;-147.17;100.00;-15917.19;4990569;28;51111;-45
2022/11/07 10:02:53;;;;;;;;;3.33;3.00;;;;;-147.17;100.00;-15917.19;4986005;28;51099;-45
2022/11/07 10:05:51;;;;;;;;;4.00;3.00;;;;;-147.17;100.00;-15917.19;4971707;28;51355;-45
2022/11/07 10:08:58;;;;;;;;;3.00;2.00;;;;;-147.17;100.00;-15917.19;4987679;28;51778;-45
2022/11/07 10:11:31;;;;;;;;;6.67;5.33;;;;;-147.17;100.00;-15917.19;4990937;28;51135;-46
2022/11/07 10:14:17;;;;;;;;;3.00;2.00;;;;;-147.17;100.00;-15917.19;4989631;28;52803;-45
2022/11/07 10:17:07;;;;;;;;;3.00;2.00;;;;;-147.17;100.00;-15917.19;4971547;28;51351;-45
2022/11/07 10:19:47;;;;;;;;;4.00;3.00;;;;;-147.17;100.00;-15917.19;4992878;28;51885;-46
2022/11/07 10:22:30;;;;;;;;;2.00;2.00;;;;;-147.17;100.00;-15917.19;4993439;28;51078;-45
2022/11/07 10:24:58;;;;;;;;;3.00;2.67;;;;;-147.17;100.00;-15917.19;4985146;28;50990;-46
2022/11/07 10:27:25;;;;;;;;;5.00;4.00;;;;;-147.17;100.00;-15917.19;4975825;28;51003;-46
2022/11/07 10:29:54;;;;;;;;;1.33;1.00;;;;;-147.17;100.00;-15917.19;4992837;28;51846;-45
2022/11/07 10:32:25;;;;;;;;;3.00;3.00;;;;;-147.17;100.00;-15917.19;4993264;28;51064;-46
2022/11/07 10:35:17;;;;;;;;;3.67;3.67;;;;;-147.17;100.00;-15917.19;4993202;28;51014;-46
2022/11/07 10:37:52;;;;;;;;;2.33;2.33;;;;;-147.17;100.00;-15917.19;4991565;28;51483;-46
2022/11/07 10:40:20;;;;;;;;;3.67;2.33;;;;;-147.17;100.00;-15917.19;4991326;28;51104;-46
2022/11/07 10:42:47;;;;;;;;;3.00;3.00;;;;;-147.17;100.00;-15917.19;4992903;28;51053;-46
2022/11/07 10:45:14;;;;;;;;;3.00;2.67;;;;;-147.17;100.00;-15917.19;4993210;28;51003;-46
2022/11/07 10:47:40;;;;;;;;;5.00;3.67;;;;;-147.17;100.00;-15917.19;4992905;28;51331;-46
2022/11/07 10:50:32;;;;;;;;;5.00;5.00;;;;;-147.17;100.00;-15917.19;4992578;28;51928;-45
2022/11/07 10:53:04;;;;;;;;;4.00;2.00;;;;;-147.17;100.00;-15917.19;4988783;28;50883;-45
2022/11/07 10:55:41;;;;;;;;;3.67;3.33;;;;;-147.17;100.00;-15917.19;4991067;28;51061;-46
2022/11/07 10:58:06;;;;;;;;;6.33;5.00;;;;;-147.17;100.00;-15917.19;4992843;28;50879;-45
2022/11/07 11:00:35;;;;;;;;;5.00;4.33;;;;;-147.17;100.00;-15917.19;4985694;28;51113;-45
2022/11/07 11:03:01;;;;;;;;;4.67;4.00;;;;;-147.17;100.00;-15917.19;4992912;28;51113;-46
2022/11/07 11:05:29;;;;;;;;;6.33;6.00;;;;;-147.17;100.00;-15917.19;4992653;28;50990;-46
2022/11/07 11:08:05;;;;;;;;;4.00;3.33;;;;;-147.17;100.00;-15917.19;4992432;28;50916;-45
2022/11/07 11:10:37;;;;;;;;;5.00;4.00;;;;;-147.17;100.00;-15917.19;4991500;28;51919;-44
2022/11/07 11:13:03;;;;;;;;;4.67;4.00;;;;;-147.17;100.00;-15917.19;4991776;28;51139;-46
2022/11/07 11:15:28;;;;;;;;;3.33;3.33;;;;;-147.17;100.00;-15917.19;4992279;28;51020;-45
2022/11/07 11:18:06;;;;;;;;;5.33;4.67;;;;;-147.17;100.00;-15917.19;4992406;28;51137;-44
2022/11/07 11:20:42;;;;;;;;;4.00;4.00;;;;;-147.17;100.00;-15917.19;4992021;28;51759;-45